createdAt,value
2019-02-12T00:00:35.391Z,3.02
2019-02-12T00:03:04.666Z,3.14
2019-02-12T00:05:33.850Z,3.18
2019-02-12T00:08:03.327Z,3.18
2019-02-12T00:10:32.992Z,3.15
2019-02-12T00:13:02.418Z,3.15
2019-02-12T00:15:31.871Z,3.16
2019-02-12T00:18:01.165Z,3.14
2019-02-12T00:20:31.054Z,3.15
2019-02-12T00:23:00.769Z,3.14
2019-02-12T00:25:29.996Z,3.17
2019-02-12T00:27:59.551Z,3.09
2019-02-12T00:30:28.906Z,3.09
2019-02-12T00:32:58.388Z,3.03
2019-02-12T00:35:27.633Z,3.04
2019-02-12T00:37:57.206Z,3.04
2019-02-12T00:40:26.782Z,2.98
2019-02-12T00:42:56.004Z,2.96
2019-02-12T00:45:25.565Z,2.83
2019-02-12T00:47:55.157Z,2.67
2019-02-12T00:50:24.323Z,2.62
2019-02-12T00:52:53.499Z,2.53
2019-02-12T00:55:23.002Z,2.47
2019-02-12T00:57:52.544Z,2.44
2019-02-12T01:00:22.003Z,2.47
2019-02-12T01:02:51.543Z,2.45
2019-02-12T01:05:20.762Z,2.39
2019-02-12T01:07:49.927Z,2.31
2019-02-12T01:10:19.119Z,2.25
2019-02-12T01:12:48.638Z,2.15
2019-02-12T01:15:18.176Z,2.11
2019-02-12T01:17:48.127Z,2.15
2019-02-12T01:20:17.649Z,2.02
2019-02-12T01:22:47.315Z,2.04
2019-02-12T01:25:16.477Z,2.19
2019-02-12T01:27:45.647Z,2.31
2019-02-12T01:30:17.909Z,2.32
2019-02-12T01:32:47.100Z,2.30
2019-02-12T01:35:16.295Z,2.32
2019-02-12T01:37:45.846Z,2.26
2019-02-12T01:40:15.573Z,2.11
2019-02-12T01:42:44.812Z,2.07
2019-02-12T01:45:18.401Z,1.99
2019-02-12T01:47:47.563Z,1.93
2019-02-12T01:50:16.725Z,1.85
2019-02-12T01:52:45.922Z,1.78
2019-02-12T01:55:15.472Z,1.81
2019-02-12T01:57:44.798Z,1.69
2019-02-12T02:00:14.956Z,1.80
2019-02-12T02:02:44.365Z,1.65
2019-02-12T02:05:13.570Z,1.69
2019-02-12T02:07:43.128Z,1.79
2019-02-12T02:10:14.885Z,1.99
2019-02-12T02:12:44.065Z,2.13
2019-02-12T02:15:13.760Z,2.22
2019-02-12T02:17:43.267Z,2.30
2019-02-12T02:20:13.378Z,2.29
2019-02-12T02:22:42.926Z,2.24
2019-02-12T02:25:12.422Z,2.22
2019-02-12T02:27:41.978Z,2.14
2019-02-12T02:30:12.281Z,2.11
2019-02-12T02:32:41.831Z,1.91
2019-02-12T02:35:11.649Z,1.74
2019-02-12T02:37:41.228Z,1.69
2019-02-12T02:40:10.818Z,1.64
2019-02-12T02:42:40.063Z,1.59
2019-02-12T02:45:10.255Z,1.48
2019-02-12T02:47:39.818Z,1.47
2019-02-12T02:50:09.498Z,1.47
2019-02-12T02:52:38.669Z,1.43
2019-02-12T02:55:08.931Z,1.36
2019-02-12T02:57:38.732Z,1.32
2019-02-12T03:00:09.695Z,1.28
2019-02-12T03:02:38.892Z,1.15
2019-02-12T03:05:10.099Z,1.11
2019-02-12T03:07:39.537Z,1.10
2019-02-12T03:10:09.251Z,1.09
2019-02-12T03:12:38.848Z,1.16
2019-02-12T03:15:09.580Z,1.15
2019-02-12T03:17:38.787Z,1.05
2019-02-12T03:20:10.119Z,0.98
2019-02-12T03:22:39.320Z,0.93
2019-02-12T03:25:09.359Z,0.88
2019-02-12T03:27:38.616Z,0.77
2019-02-12T03:30:09.772Z,0.73
2019-02-12T03:32:39.351Z,0.76
2019-02-12T03:35:09.830Z,0.71
2019-02-12T03:37:39.364Z,0.65
2019-02-12T03:40:10.243Z,0.71
2019-02-12T03:42:39.888Z,0.68
2019-02-12T03:45:10.082Z,0.89
2019-02-12T03:47:39.263Z,0.94
2019-02-12T03:50:09.764Z,0.83
2019-02-12T03:52:38.955Z,0.77
2019-02-12T03:55:09.854Z,0.73
2019-02-12T03:57:39.263Z,0.73
2019-02-12T04:00:11.081Z,0.71
2019-02-12T04:02:59.139Z,0.65
2019-02-12T04:05:28.741Z,0.72
2019-02-12T04:08:01.368Z,0.73
2019-02-12T04:10:31.187Z,0.77
2019-02-12T04:13:02.798Z,0.70
2019-02-12T04:15:32.136Z,0.68
2019-02-12T04:18:05.641Z,0.63
2019-02-12T04:20:35.196Z,0.65
2019-02-12T04:23:04.337Z,0.69
2019-02-12T04:25:33.524Z,0.72
2019-02-12T04:28:03.356Z,0.63
2019-02-12T04:30:32.582Z,0.63
2019-02-12T04:33:04.226Z,0.61
2019-02-12T04:35:33.373Z,0.71
2019-02-12T04:38:03.027Z,0.68
2019-02-12T04:40:32.542Z,0.71
2019-02-12T04:43:02.228Z,0.67
2019-02-12T04:45:31.425Z,0.67
2019-02-12T04:48:01.120Z,0.64
2019-02-12T04:50:30.663Z,0.65
2019-02-12T04:53:00.155Z,0.59
2019-02-12T04:55:29.567Z,0.60
2019-02-12T04:57:59.067Z,0.51
2019-02-12T05:00:28.211Z,0.50
2019-02-12T05:02:57.432Z,0.50
2019-02-12T05:05:26.629Z,0.44
2019-02-12T05:07:56.070Z,0.45
2019-02-12T05:10:26.474Z,0.46
2019-02-12T05:12:55.693Z,0.40
2019-02-12T05:15:25.700Z,0.42
2019-02-12T05:17:55.255Z,0.36
2019-02-12T05:20:25.242Z,0.39
2019-02-12T05:22:55.432Z,0.36
2019-02-12T05:25:24.779Z,0.34
2019-02-12T05:27:53.938Z,0.36
2019-02-12T05:30:23.135Z,0.31
2019-02-12T05:32:52.355Z,0.30
2019-02-12T05:35:21.855Z,0.34
2019-02-12T05:37:51.394Z,0.39
2019-02-12T05:40:21.017Z,0.42
2019-02-12T05:42:50.303Z,0.42
2019-02-12T05:45:19.721Z,0.40
2019-02-12T05:47:48.982Z,0.40
2019-02-12T05:50:18.695Z,0.38
2019-02-12T05:52:54.573Z,0.42
2019-02-12T05:55:19.452Z,0.44
2019-02-12T05:57:49.473Z,0.49
2019-02-12T06:00:19.477Z,0.49
2019-02-12T06:02:49.407Z,0.48
2019-02-12T06:05:27.041Z,0.58
2019-02-12T06:07:56.214Z,0.60
2019-02-12T06:10:25.415Z,0.66
2019-02-12T06:12:54.579Z,0.73
2019-02-12T06:15:24.530Z,0.76
2019-02-12T06:17:54.047Z,0.82
2019-02-12T06:20:23.248Z,0.88
2019-02-12T06:22:52.421Z,0.93
2019-02-12T06:25:22.006Z,0.99
2019-02-12T06:27:51.239Z,1.02
2019-02-12T06:30:20.444Z,1.06
2019-02-12T06:32:49.629Z,1.16
2019-02-12T06:35:19.339Z,1.18
2019-02-12T06:37:48.490Z,1.21
2019-02-12T06:40:18.353Z,1.25
2019-02-12T06:42:47.545Z,1.30
2019-02-12T06:45:16.727Z,1.34
2019-02-12T06:47:46.338Z,1.39
2019-02-12T06:50:16.202Z,1.40
2019-02-12T06:52:46.061Z,1.47
2019-02-12T06:55:17.104Z,1.47
2019-02-12T06:57:46.635Z,1.47
2019-02-12T07:00:15.881Z,1.49
2019-02-12T07:03:20.025Z,1.53
2019-02-12T07:05:56.077Z,1.50
2019-02-12T07:08:36.771Z,1.55
2019-02-12T07:11:56.283Z,1.61
2019-02-12T07:14:37.623Z,1.66
2019-02-12T07:17:41.425Z,1.73
2019-02-12T07:20:33.814Z,1.79
2019-02-12T07:23:36.305Z,1.81
2019-02-12T07:26:51.017Z,1.79
2019-02-12T07:30:10.937Z,1.79
2019-02-12T07:33:22.758Z,1.79
2019-02-12T07:36:35.512Z,1.86
2019-02-12T07:39:35.288Z,1.90
2019-02-12T07:42:29.170Z,1.99
2019-02-12T07:45:33.996Z,2.02
2019-02-12T07:48:33.258Z,2.07
2019-02-12T07:51:35.286Z,2.06
2019-02-12T07:54:31.063Z,2.16
2019-02-12T07:57:43.583Z,2.20
2019-02-12T08:01:01.622Z,2.27
2019-02-12T08:04:12.388Z,2.36
2019-02-12T08:07:07.610Z,2.39
2019-02-12T08:10:11.767Z,2.48
2019-02-12T08:13:17.872Z,2.58
2019-02-12T08:16:02.668Z,2.58
2019-02-12T08:19:19.167Z,2.62
2019-02-12T08:22:44.891Z,2.59
2019-02-12T08:25:28.675Z,2.66
2019-02-12T08:28:37.373Z,2.69
2019-02-12T08:31:43.751Z,2.88
2019-02-12T08:34:50.106Z,3.09
2019-02-12T08:37:42.793Z,3.34
2019-02-12T08:40:44.110Z,3.53
2019-02-12T08:43:42.358Z,3.77
2019-02-12T08:46:43.019Z,4.01
2019-02-12T08:49:52.467Z,4.28
2019-02-12T08:53:05.924Z,4.55
2019-02-12T08:55:57.017Z,4.69
2019-02-12T08:58:53.428Z,4.66
2019-02-12T09:02:16.378Z,4.73
2019-02-12T09:05:10.479Z,4.74
2019-02-12T09:07:53.694Z,4.84
2019-02-12T09:11:12.826Z,4.64
2019-02-12T09:13:59.492Z,4.81
2019-02-12T09:17:14.929Z,5.09
2019-02-12T09:20:11.193Z,5.29
2019-02-12T09:23:18.419Z,5.49
2019-02-12T09:26:22.244Z,5.66
2019-02-12T09:29:35.040Z,5.63
2019-02-12T09:32:36.293Z,5.65
2019-02-12T09:36:10.802Z,5.73
2019-02-12T09:39:19.687Z,5.83
2019-02-12T09:42:06.065Z,5.84
2019-02-12T09:45:14.063Z,5.78
2019-02-12T09:48:38.919Z,6.12
2019-02-12T09:51:41.996Z,6.34
2019-02-12T09:54:39.959Z,6.26
2019-02-12T09:57:35.480Z,6.26
2019-02-12T10:00:34.355Z,6.45
2019-02-12T10:03:44.551Z,6.69
2019-02-12T10:06:51.568Z,6.81
2019-02-12T10:09:44.040Z,6.42
2019-02-12T10:12:37.484Z,6.63
2019-02-12T10:15:42.448Z,6.77
2019-02-12T10:18:50.480Z,6.72
2019-02-12T10:21:51.359Z,6.71
2019-02-12T10:24:53.951Z,6.92
2019-02-12T10:28:04.541Z,6.77
2019-02-12T10:31:20.934Z,6.96
2019-02-12T10:33:50.141Z,6.96
2019-02-12T10:36:19.765Z,7.07
2019-02-12T10:38:49.040Z,7.04
2019-02-12T10:41:18.578Z,7.19
2019-02-12T10:43:50.860Z,7.19
2019-02-12T10:46:20.076Z,7.05
2019-02-12T10:48:49.262Z,7.06
2019-02-12T10:51:18.717Z,7.15
2019-02-12T10:53:48.384Z,7.09
2019-02-12T10:56:17.577Z,6.69
2019-02-12T10:58:48.521Z,6.47
2019-02-12T11:01:18.006Z,6.83
2019-02-12T11:03:47.164Z,6.72
2019-02-12T11:06:16.511Z,6.87
2019-02-12T11:08:46.365Z,7.01
2019-02-12T11:11:15.534Z,7.16
2019-02-12T11:13:44.790Z,6.91
2019-02-12T11:16:13.950Z,7.17
2019-02-12T11:18:43.132Z,7.12
2019-02-12T11:21:13.425Z,6.99
2019-02-12T11:23:42.944Z,7.06
2019-02-12T11:26:12.453Z,6.95
2019-02-12T11:28:41.655Z,7.35
2019-02-12T11:31:11.213Z,7.69
2019-02-12T11:33:40.441Z,7.88
2019-02-12T11:36:09.616Z,7.68
2019-02-12T11:38:38.794Z,7.89
2019-02-12T11:41:08.005Z,8.05
2019-02-12T11:43:37.273Z,8.24
2019-02-12T11:46:06.806Z,8.20
2019-02-12T11:48:36.345Z,8.07
2019-02-12T11:51:05.550Z,8.07
2019-02-12T11:53:35.113Z,8.14
2019-02-12T11:56:04.607Z,8.19
2019-02-12T11:58:33.807Z,8.16
2019-02-12T12:01:05.377Z,7.83
2019-02-12T12:03:34.947Z,8.24
2019-02-12T12:06:04.300Z,7.88
2019-02-12T12:08:33.617Z,7.88
2019-02-12T12:11:02.823Z,8.39
2019-02-12T12:13:31.976Z,8.52
2019-02-12T12:16:01.553Z,8.28
2019-02-12T12:18:31.133Z,7.86
2019-02-12T12:21:00.312Z,8.21
2019-02-12T12:23:29.860Z,8.71
2019-02-12T12:25:59.022Z,8.36
2019-02-12T12:28:28.257Z,8.49
2019-02-12T12:30:57.997Z,8.61
2019-02-12T12:33:27.169Z,8.84
2019-02-12T12:35:56.371Z,8.56
2019-02-12T12:38:25.994Z,8.52
2019-02-12T12:40:56.515Z,8.76
2019-02-12T12:43:26.044Z,8.82
2019-02-12T12:45:55.262Z,8.62
2019-02-12T12:48:24.819Z,8.73
2019-02-12T12:50:54.434Z,8.43
2019-02-12T12:53:23.545Z,8.85
2019-02-12T12:55:52.752Z,9.09
2019-02-12T12:58:21.934Z,9.38
2019-02-12T13:00:51.590Z,9.05
2019-02-12T13:03:21.159Z,8.57
2019-02-12T13:05:50.771Z,8.53
2019-02-12T13:08:20.281Z,8.37
2019-02-12T13:10:49.545Z,8.47
2019-02-12T13:13:19.090Z,8.66
2019-02-12T13:15:48.233Z,8.44
2019-02-12T13:18:17.993Z,8.33
2019-02-12T13:20:47.768Z,8.29
2019-02-12T13:23:17.198Z,8.46
2019-02-12T13:25:46.425Z,8.41
2019-02-12T13:28:15.962Z,8.45
2019-02-12T13:30:48.304Z,8.40
2019-02-12T13:33:17.972Z,8.42
2019-02-12T13:35:47.519Z,8.76
2019-02-12T13:38:16.737Z,8.73
2019-02-12T13:40:46.064Z,8.48
2019-02-12T13:43:15.722Z,8.75
2019-02-12T13:45:45.002Z,8.58
2019-02-12T13:48:14.262Z,8.70
2019-02-12T13:50:45.460Z,8.63
2019-02-12T13:53:14.657Z,8.66
2019-02-12T13:55:43.814Z,8.85
2019-02-12T13:58:12.972Z,8.88
2019-02-12T14:00:43.093Z,8.80
2019-02-12T14:03:12.289Z,8.76
2019-02-12T14:05:42.161Z,8.48
2019-02-12T14:08:11.784Z,8.71
2019-02-12T14:10:40.999Z,8.85
2019-02-12T14:13:10.610Z,8.90
2019-02-12T14:15:40.243Z,8.92
2019-02-12T14:18:10.411Z,8.87
2019-02-12T14:20:39.576Z,8.67
2019-02-12T14:23:08.848Z,8.63
2019-02-12T14:25:38.013Z,8.73
2019-02-12T14:28:07.328Z,8.78
2019-02-12T14:30:36.512Z,8.65
2019-02-12T14:33:06.107Z,8.75
2019-02-12T14:35:35.371Z,8.61
2019-02-12T14:38:04.977Z,8.68
2019-02-12T14:40:34.597Z,8.56
2019-02-12T14:43:04.166Z,8.60
2019-02-12T14:45:33.339Z,8.64
2019-02-12T14:48:03.026Z,8.69
2019-02-12T14:50:32.191Z,8.67
2019-02-12T14:53:02.028Z,8.71
2019-02-12T14:55:33.891Z,8.65
2019-02-12T14:58:02.840Z,8.59
2019-02-12T15:00:34.057Z,8.54
2019-02-12T15:03:03.393Z,8.68
2019-02-12T15:05:33.031Z,8.67
2019-02-12T15:08:02.604Z,8.62
2019-02-12T15:10:31.774Z,8.67
2019-02-12T15:13:01.311Z,8.46
2019-02-12T15:15:30.463Z,8.32
2019-02-12T15:18:00.052Z,8.28
2019-02-12T15:20:29.520Z,8.23
2019-02-12T15:22:59.397Z,8.11
2019-02-12T15:25:29.017Z,7.98
2019-02-12T15:27:58.580Z,7.86
2019-02-12T15:30:27.820Z,7.72
2019-02-12T15:32:59.583Z,7.69
2019-02-12T15:35:28.754Z,7.56
2019-02-12T15:37:58.319Z,7.54
2019-02-12T15:40:27.804Z,7.45
2019-02-12T15:42:57.349Z,7.40
2019-02-12T15:45:26.558Z,7.37
2019-02-12T15:47:56.038Z,7.26
2019-02-12T15:50:25.244Z,7.25
2019-02-12T15:52:54.748Z,7.24
2019-02-12T15:55:23.981Z,7.23
2019-02-12T15:57:53.208Z,7.17
2019-02-12T16:00:22.359Z,7.00
2019-02-12T16:02:54.038Z,6.95
2019-02-12T16:05:23.937Z,6.92
2019-02-12T16:07:53.528Z,6.87
2019-02-12T16:10:23.029Z,6.92
2019-02-12T16:12:52.626Z,6.95
2019-02-12T16:15:24.417Z,6.97
2019-02-12T16:17:53.263Z,7.10
2019-02-12T16:20:22.443Z,7.09
2019-02-12T16:22:51.662Z,7.09
2019-02-12T16:25:21.226Z,7.23
2019-02-12T16:27:50.726Z,7.21
2019-02-12T16:30:19.925Z,7.08
2019-02-12T16:32:49.091Z,7.00
2019-02-12T16:35:18.731Z,6.87
2019-02-12T16:37:48.295Z,6.77
2019-02-12T16:40:17.792Z,6.70
2019-02-12T16:42:46.951Z,6.57
2019-02-12T16:45:19.257Z,6.46
2019-02-12T16:47:48.820Z,6.50
2019-02-12T16:50:18.339Z,6.51
2019-02-12T16:52:47.509Z,6.52
2019-02-12T16:55:18.549Z,6.51
2019-02-12T16:57:47.751Z,6.40
2019-02-12T17:00:17.390Z,6.33
2019-02-12T17:02:46.934Z,6.17
2019-02-12T17:05:18.086Z,6.17
2019-02-12T17:07:48.589Z,6.13
2019-02-12T17:10:18.065Z,6.07
2019-02-12T17:12:47.257Z,5.97
2019-02-12T17:15:17.218Z,5.97
2019-02-12T17:17:46.700Z,5.90
2019-02-12T17:20:17.287Z,5.92
2019-02-12T17:22:46.498Z,5.95
2019-02-12T17:25:15.735Z,5.89
2019-02-12T17:27:44.997Z,5.93
2019-02-12T17:30:14.657Z,5.99
2019-02-12T17:32:44.236Z,5.90
2019-02-12T17:35:13.591Z,5.94
2019-02-12T17:37:42.767Z,5.94
2019-02-12T17:40:12.797Z,5.88
2019-02-12T17:42:42.067Z,5.88
2019-02-12T17:45:13.080Z,5.90
2019-02-12T17:47:42.232Z,5.90
2019-02-12T17:50:12.337Z,5.91
2019-02-12T17:52:41.632Z,5.85
2019-02-12T17:55:11.645Z,5.84
2019-02-12T17:57:41.260Z,5.85
2019-02-12T18:00:14.964Z,5.86
2019-02-12T18:02:44.738Z,5.78
2019-02-12T18:05:14.156Z,5.79
2019-02-12T18:07:44.069Z,5.68
2019-02-12T18:10:13.270Z,5.51
2019-02-12T18:12:45.970Z,5.47
2019-02-12T18:15:15.153Z,5.37
2019-02-12T18:17:44.948Z,5.29
2019-02-12T18:20:14.525Z,5.23
2019-02-12T18:22:44.059Z,5.16
2019-02-12T18:25:13.683Z,5.12
2019-02-12T18:27:42.984Z,5.06
2019-02-12T18:30:13.857Z,5.04
2019-02-12T18:32:43.091Z,4.98
2019-02-12T18:35:12.265Z,5.04
2019-02-12T18:37:41.926Z,5.00
2019-02-12T18:40:12.334Z,5.09
2019-02-12T18:42:41.527Z,4.99
2019-02-12T18:45:13.058Z,4.97
2019-02-12T18:47:42.547Z,4.86
2019-02-12T18:50:12.720Z,4.80
2019-02-12T18:52:41.967Z,4.79
2019-02-12T18:55:12.354Z,4.79
2019-02-12T18:57:41.737Z,4.73
2019-02-12T19:00:14.082Z,4.72
2019-02-12T19:02:43.859Z,4.71
2019-02-12T19:05:13.152Z,4.74
2019-02-12T19:07:42.988Z,4.77
2019-02-12T19:10:13.266Z,4.72
2019-02-12T19:12:42.477Z,4.73
2019-02-12T19:15:13.734Z,4.72
2019-02-12T19:17:44.150Z,4.75
2019-02-12T19:20:13.673Z,4.72
2019-02-12T19:22:43.695Z,4.76
2019-02-12T19:25:13.334Z,4.93
2019-02-12T19:27:42.519Z,4.90
2019-02-12T19:30:13.789Z,4.99
2019-02-12T19:32:43.504Z,5.01
2019-02-12T19:35:13.381Z,4.98
2019-02-12T19:37:43.871Z,4.94
2019-02-12T19:40:13.107Z,4.85
2019-02-12T19:42:42.386Z,4.82
2019-02-12T19:45:12.142Z,4.88
2019-02-12T19:47:42.035Z,4.75
2019-02-12T19:50:11.587Z,4.71
2019-02-12T19:52:41.535Z,4.74
2019-02-12T19:55:11.500Z,4.77
2019-02-12T19:57:40.940Z,4.68
2019-02-12T20:00:14.331Z,4.73
2019-02-12T20:02:44.069Z,4.84
2019-02-12T20:05:13.423Z,4.87
2019-02-12T20:07:43.102Z,4.91
2019-02-12T20:10:13.259Z,4.96
2019-02-12T20:12:42.840Z,5.01
2019-02-12T20:15:13.077Z,5.03
2019-02-12T20:17:43.273Z,5.08
2019-02-12T20:20:13.082Z,5.18
2019-02-12T20:22:42.418Z,5.17
2019-02-12T20:25:12.215Z,5.22
2019-02-12T20:27:41.451Z,5.25
2019-02-12T20:30:12.380Z,5.26
2019-02-12T20:32:41.956Z,5.21
2019-02-12T20:35:12.571Z,5.16
2019-02-12T20:37:41.813Z,5.28
2019-02-12T20:40:12.007Z,5.30
2019-02-12T20:42:41.621Z,5.28
2019-02-12T20:45:13.101Z,5.28
2019-02-12T20:47:42.279Z,5.39
2019-02-12T20:50:13.585Z,5.44
2019-02-12T20:52:45.891Z,5.39
2019-02-12T20:55:15.396Z,5.34
2019-02-12T20:57:45.209Z,5.26
2019-02-12T21:00:16.368Z,5.32
2019-02-12T21:02:45.541Z,5.38
2019-02-12T21:05:15.236Z,5.25
2019-02-12T21:07:44.446Z,5.06
2019-02-12T21:10:15.434Z,4.92
2019-02-12T21:12:45.013Z,4.93
2019-02-12T21:15:16.498Z,4.86
2019-02-12T21:17:45.726Z,4.88
2019-02-12T21:20:14.947Z,4.87
2019-02-12T21:22:44.419Z,4.80
2019-02-12T21:25:13.616Z,4.74
2019-02-12T21:27:42.809Z,4.71
2019-02-12T21:30:14.861Z,4.65
2019-02-12T21:32:44.360Z,4.67
2019-02-12T21:35:13.618Z,4.62
2019-02-12T21:37:43.074Z,4.55
2019-02-12T21:40:15.005Z,4.60
2019-02-12T21:42:44.185Z,4.54
2019-02-12T21:45:13.406Z,4.49
2019-02-12T21:47:42.556Z,4.47
2019-02-12T21:50:12.242Z,4.50
2019-02-12T21:52:41.818Z,4.55
2019-02-12T21:55:12.408Z,4.58
2019-02-12T21:57:41.732Z,4.56
2019-02-12T22:00:13.364Z,4.59
2019-02-12T22:02:43.970Z,4.66
2019-02-12T22:05:13.806Z,4.65
2019-02-12T22:07:43.364Z,4.60
2019-02-12T22:10:14.863Z,4.65
2019-02-12T22:12:44.321Z,4.66
2019-02-12T22:15:13.678Z,4.72
2019-02-12T22:17:43.349Z,4.70
2019-02-12T22:20:14.535Z,4.76
2019-02-12T22:22:43.699Z,4.69
2019-02-12T22:25:13.616Z,4.71
2019-02-12T22:27:43.098Z,4.66
2019-02-12T22:30:15.016Z,4.61
2019-02-12T22:32:44.465Z,4.60
2019-02-12T22:35:14.711Z,4.59
2019-02-12T22:37:44.338Z,4.65
2019-02-12T22:40:13.980Z,4.74
2019-02-12T22:42:43.226Z,4.90
2019-02-12T22:45:15.172Z,4.95
2019-02-12T22:47:44.356Z,4.95
2019-02-12T22:50:13.632Z,5.00
2019-02-12T22:52:43.184Z,4.98
2019-02-12T22:55:13.063Z,4.95
2019-02-12T22:57:48.948Z,4.98
2019-02-12T23:00:24.743Z,5.00
2019-02-12T23:02:53.978Z,4.98
2019-02-12T23:05:23.502Z,5.00
2019-02-12T23:07:53.024Z,5.04
2019-02-12T23:10:22.602Z,4.97
2019-02-12T23:12:51.808Z,5.02
2019-02-12T23:15:21.358Z,4.92
2019-02-12T23:17:50.881Z,5.04
2019-02-12T23:20:20.038Z,5.06
2019-02-12T23:22:49.621Z,5.03
2019-02-12T23:25:19.574Z,5.09
2019-02-12T23:27:57.039Z,5.06
2019-02-12T23:30:19.622Z,5.12
2019-02-12T23:32:49.216Z,5.17
2019-02-12T23:35:19.041Z,5.19
2019-02-12T23:37:48.935Z,5.19
2019-02-12T23:40:18.136Z,5.22
2019-02-12T23:42:47.633Z,5.22
2019-02-12T23:45:17.144Z,5.27
2019-02-12T23:47:46.601Z,5.25
2019-02-12T23:50:15.861Z,5.26
2019-02-12T23:52:45.769Z,5.34
2019-02-12T23:55:14.936Z,5.39
2019-02-12T23:57:44.473Z,5.37
